createdAt,value
2019-05-16T00:00:19.230Z,9.91
2019-05-16T00:02:51.266Z,9.98
2019-05-16T00:05:23.193Z,10.05
2019-05-16T00:07:55.056Z,10.08
2019-05-16T00:10:28.196Z,10.06
2019-05-16T00:13:00.115Z,10.13
2019-05-16T00:15:31.977Z,10.12
2019-05-16T00:18:03.828Z,10.18
2019-05-16T00:20:35.718Z,10.16
2019-05-16T00:23:07.987Z,10.22
2019-05-16T00:25:39.857Z,10.28
2019-05-16T00:28:11.747Z,10.27
2019-05-16T00:30:43.628Z,10.33
2019-05-16T00:33:15.504Z,10.33
2019-05-16T00:35:48.161Z,10.26
2019-05-16T00:38:20.983Z,10.27
2019-05-16T00:40:52.863Z,10.30
2019-05-16T00:43:24.674Z,10.30
2019-05-16T00:45:58.734Z,10.29
2019-05-16T00:48:30.320Z,10.35
2019-05-16T00:51:02.373Z,10.40
2019-05-16T00:53:34.339Z,10.41
2019-05-16T00:56:07.927Z,10.37
2019-05-16T00:58:39.884Z,10.41
2019-05-16T01:01:11.818Z,10.41
2019-05-16T01:03:43.697Z,10.45
2019-05-16T01:06:19.913Z,10.48
2019-05-16T01:08:49.132Z,10.54
2019-05-16T01:11:20.996Z,10.54
2019-05-16T01:13:52.829Z,10.61
2019-05-16T01:16:24.636Z,10.65
2019-05-16T01:18:58.854Z,10.64
2019-05-16T01:21:30.037Z,10.62
2019-05-16T01:24:02.321Z,10.67
2019-05-16T01:26:34.265Z,10.70
2019-05-16T01:29:08.127Z,10.73
2019-05-16T01:31:39.693Z,10.75
2019-05-16T01:34:11.548Z,10.83
2019-05-16T01:36:43.343Z,10.84
2019-05-16T01:39:15.210Z,10.85
2019-05-16T01:41:48.117Z,10.88
2019-05-16T01:44:20.040Z,10.91
2019-05-16T01:46:51.907Z,10.92
2019-05-16T01:49:23.765Z,10.95
2019-05-16T01:51:57.735Z,10.94
2019-05-16T01:54:29.207Z,10.97
2019-05-16T01:57:01.053Z,10.97
2019-05-16T01:59:32.917Z,10.97
2019-05-16T02:02:04.723Z,10.99
2019-05-16T02:04:37.990Z,11.00
2019-05-16T02:07:11.101Z,11.05
2019-05-16T02:09:42.989Z,11.05
2019-05-16T02:12:14.900Z,11.06
2019-05-16T02:14:48.077Z,11.14
2019-05-16T02:17:21.036Z,11.16
2019-05-16T02:19:53.606Z,11.16
2019-05-16T02:22:25.559Z,11.16
2019-05-16T02:24:58.529Z,11.17
2019-05-16T02:27:30.407Z,11.21
2019-05-16T02:30:02.279Z,11.20
2019-05-16T02:32:34.257Z,11.24
2019-05-16T02:35:06.300Z,11.26
2019-05-16T02:37:41.774Z,11.25
2019-05-16T02:40:12.514Z,11.26
2019-05-16T02:42:44.536Z,11.27
2019-05-16T02:45:23.912Z,11.28
2019-05-16T02:47:51.457Z,11.27
2019-05-16T02:50:23.325Z,11.32
2019-05-16T02:52:55.132Z,11.35
2019-05-16T02:55:26.919Z,11.36
2019-05-16T02:58:00.838Z,11.39
2019-05-16T03:00:42.068Z,11.40
2019-05-16T03:03:12.063Z,11.40
2019-05-16T03:05:44.488Z,11.40
2019-05-16T03:08:16.406Z,11.39
2019-05-16T03:10:51.765Z,11.33
2019-05-16T03:13:23.929Z,11.30
2019-05-16T03:15:56.434Z,11.27
2019-05-16T03:18:31.011Z,11.23
2019-05-16T03:21:02.805Z,11.25
2019-05-16T03:23:34.790Z,11.28
2019-05-16T03:26:06.815Z,11.33
2019-05-16T03:28:41.329Z,11.28
2019-05-16T03:31:15.251Z,11.33
2019-05-16T03:33:56.530Z,11.40
2019-05-16T03:36:25.123Z,11.42
2019-05-16T03:38:53.299Z,11.43
2019-05-16T03:41:25.170Z,11.43
2019-05-16T03:43:57.052Z,11.38
2019-05-16T03:46:30.872Z,11.35
2019-05-16T03:49:02.808Z,11.40
2019-05-16T03:51:34.846Z,11.43
2019-05-16T03:54:06.754Z,11.41
2019-05-16T03:56:40.815Z,11.41
2019-05-16T03:59:12.416Z,11.43
2019-05-16T04:01:44.384Z,11.46
2019-05-16T04:04:16.266Z,11.49
2019-05-16T04:06:50.674Z,11.54
2019-05-16T04:09:21.725Z,11.57
2019-05-16T04:11:53.578Z,11.56
2019-05-16T04:14:25.385Z,11.50
2019-05-16T04:17:01.605Z,11.53
2019-05-16T04:19:33.794Z,11.51
2019-05-16T04:22:10.460Z,11.50
2019-05-16T04:24:42.441Z,11.50
2019-05-16T04:27:14.317Z,11.51
2019-05-16T04:29:47.096Z,11.49
2019-05-16T04:32:20.824Z,11.47
2019-05-16T04:34:52.537Z,11.49
2019-05-16T04:37:26.425Z,11.50
2019-05-16T04:40:00.908Z,11.47
2019-05-16T04:42:31.418Z,11.46
2019-05-16T04:45:04.284Z,11.51
2019-05-16T04:47:36.154Z,11.58
2019-05-16T04:50:11.361Z,11.62
2019-05-16T04:52:42.283Z,11.66
2019-05-16T04:55:14.156Z,11.69
2019-05-16T04:57:46.027Z,11.65
2019-05-16T05:00:21.236Z,11.62
2019-05-16T05:02:52.658Z,11.66
2019-05-16T05:05:24.537Z,11.64
2019-05-16T05:07:56.417Z,11.67
2019-05-16T05:10:31.033Z,11.69
2019-05-16T05:13:01.791Z,11.68
2019-05-16T05:15:34.286Z,11.73
2019-05-16T05:18:06.185Z,11.74
2019-05-16T05:20:40.842Z,11.70
2019-05-16T05:23:11.582Z,11.71
2019-05-16T05:25:43.399Z,11.71
2019-05-16T05:28:15.212Z,11.73
2019-05-16T05:30:47.467Z,11.69
2019-05-16T05:33:21.035Z,11.68
2019-05-16T05:35:52.852Z,11.65
2019-05-16T05:38:24.730Z,11.61
2019-05-16T05:40:56.534Z,11.63
2019-05-16T05:43:30.591Z,11.68
2019-05-16T05:46:02.897Z,11.63
2019-05-16T05:48:34.774Z,11.62
2019-05-16T05:51:06.861Z,11.62
2019-05-16T05:53:40.184Z,11.58
2019-05-16T05:56:12.150Z,11.66
2019-05-16T05:58:44.069Z,11.66
2019-05-16T06:01:17.014Z,11.68
2019-05-16T06:03:50.491Z,11.76
2019-05-16T06:06:23.480Z,11.80
2019-05-16T06:08:55.446Z,11.86
2019-05-16T06:11:27.269Z,11.88
2019-05-16T06:14:00.468Z,11.89
2019-05-16T06:16:32.429Z,11.83
2019-05-16T06:19:04.236Z,11.84
2019-05-16T06:21:36.063Z,11.89
2019-05-16T06:24:10.521Z,11.96
2019-05-16T06:26:41.495Z,12.02
2019-05-16T06:29:13.391Z,12.00
2019-05-16T06:31:45.279Z,12.02
2019-05-16T06:34:17.162Z,12.08
2019-05-16T06:36:50.877Z,12.05
2019-05-16T06:39:22.621Z,12.06
2019-05-16T06:41:54.416Z,12.02
2019-05-16T06:44:26.343Z,12.03
2019-05-16T06:47:14.998Z,12.03
2019-05-16T06:49:32.044Z,12.16
2019-05-16T06:52:04.192Z,12.20
2019-05-16T06:54:36.064Z,12.19
2019-05-16T06:57:10.415Z,12.22
2019-05-16T06:59:43.363Z,12.16
2019-05-16T07:02:29.705Z,12.23
2019-05-16T07:04:51.368Z,12.28
2019-05-16T07:07:23.366Z,12.37
2019-05-16T07:10:00.742Z,12.42
2019-05-16T07:12:31.492Z,12.51
2019-05-16T07:15:02.500Z,12.51
2019-05-16T07:17:34.752Z,12.60
2019-05-16T07:20:10.185Z,12.67
2019-05-16T07:22:41.259Z,12.69
2019-05-16T07:25:14.764Z,12.71
2019-05-16T07:27:46.910Z,12.80
2019-05-16T07:30:19.903Z,12.94
2019-05-16T07:32:51.910Z,12.94
2019-05-16T07:35:23.796Z,13.03
2019-05-16T07:37:55.608Z,13.10
2019-05-16T07:40:27.439Z,13.15
2019-05-16T07:43:00.107Z,13.20
2019-05-16T07:45:32.042Z,13.25
2019-05-16T07:48:03.972Z,13.33
2019-05-16T07:50:35.844Z,13.33
2019-05-16T07:53:10.443Z,13.40
2019-05-16T07:55:41.401Z,13.44
2019-05-16T07:58:13.421Z,13.49
2019-05-16T08:00:52.662Z,13.64
2019-05-16T08:03:19.944Z,13.72
2019-05-16T08:05:51.948Z,13.77
2019-05-16T08:08:24.697Z,13.86
2019-05-16T08:10:56.678Z,13.93
2019-05-16T08:13:30.613Z,13.92
2019-05-16T08:16:02.050Z,13.93
2019-05-16T08:18:33.919Z,13.93
2019-05-16T08:21:05.918Z,13.90
2019-05-16T08:23:38.696Z,13.99
2019-05-16T08:26:11.411Z,13.99
2019-05-16T08:28:43.290Z,13.98
2019-05-16T08:31:15.107Z,13.99
2019-05-16T08:33:46.968Z,14.04
2019-05-16T08:36:21.007Z,14.03
2019-05-16T08:38:52.327Z,14.05
2019-05-16T08:41:24.188Z,14.04
2019-05-16T08:43:56.019Z,14.02
2019-05-16T08:46:31.902Z,13.92
2019-05-16T08:49:01.470Z,13.93
2019-05-16T08:51:33.785Z,13.90
2019-05-16T08:54:06.216Z,13.79
2019-05-16T08:56:43.764Z,13.71
2019-05-16T08:59:13.498Z,13.70
2019-05-16T09:04:24.389Z,13.63
2019-05-16T09:06:53.456Z,13.55
2019-05-16T09:09:41.653Z,13.44
2019-05-16T09:10:42.043Z,13.65
2019-05-16T09:11:58.958Z,13.41
2019-05-16T09:14:35.245Z,13.31
2019-05-16T09:17:07.429Z,13.10
2019-05-16T09:19:39.677Z,13.22
2019-05-16T09:22:11.559Z,13.16
2019-05-16T09:24:43.476Z,13.10
2019-05-16T09:27:17.837Z,13.17
2019-05-16T09:29:59.621Z,13.18
2019-05-16T09:32:36.970Z,13.20
2019-05-16T09:35:09.124Z,13.24
2019-05-16T09:37:41.623Z,13.09
2019-05-16T09:40:17.030Z,12.92
2019-05-16T09:42:48.278Z,12.88
2019-05-16T09:45:20.174Z,12.88
2019-05-16T09:47:52.053Z,12.74
2019-05-16T09:50:26.647Z,12.74
2019-05-16T09:52:58.496Z,12.67
2019-05-16T09:55:30.394Z,12.74
2019-05-16T09:58:07.309Z,12.74
2019-05-16T10:00:39.484Z,12.60
2019-05-16T10:03:12.365Z,12.55
2019-05-16T10:05:46.747Z,12.55
2019-05-16T10:08:20.505Z,12.61
2019-05-16T10:10:56.871Z,12.49
2019-05-16T10:13:29.860Z,12.50
2019-05-16T10:16:02.561Z,12.38
2019-05-16T10:18:37.012Z,12.60
2019-05-16T10:21:10.868Z,12.67
2019-05-16T10:23:46.949Z,12.84
2019-05-16T10:26:20.620Z,12.96
2019-05-16T10:28:52.983Z,12.95
2019-05-16T10:31:38.533Z,13.04
2019-05-16T10:34:02.082Z,13.10
2019-05-16T10:36:37.379Z,13.16
2019-05-16T10:39:11.642Z,13.05
2019-05-16T10:41:46.710Z,12.96
2019-05-16T10:44:18.941Z,12.99
2019-05-16T10:46:50.960Z,12.88
2019-05-16T10:49:37.299Z,12.88
2019-05-16T10:52:00.396Z,12.89
2019-05-16T10:54:32.672Z,12.90
2019-05-16T10:57:07.781Z,12.99
2019-05-16T11:00:01.877Z,13.06
2019-05-16T11:02:13.545Z,13.26
2019-05-16T11:04:57.447Z,13.26
2019-05-16T11:07:19.252Z,13.33
2019-05-16T11:09:58.525Z,13.34
2019-05-16T11:12:45.452Z,13.45
2019-05-16T11:14:59.093Z,13.49
2019-05-16T11:17:30.902Z,13.54
2019-05-16T11:20:02.764Z,13.67
2019-05-16T11:22:36.993Z,13.67
2019-05-16T11:25:20.773Z,13.68
2019-05-16T11:27:42.073Z,13.84
2019-05-16T11:30:14.226Z,13.87
2019-05-16T11:32:46.937Z,14.00
2019-05-16T11:35:19.023Z,14.01
2019-05-16T11:37:50.903Z,13.99
2019-05-16T11:40:22.993Z,14.05
2019-05-16T11:43:08.983Z,14.28
2019-05-16T11:45:28.419Z,14.38
2019-05-16T11:48:00.286Z,14.17
2019-05-16T11:50:32.181Z,14.22
2019-05-16T11:53:04.086Z,14.33
2019-05-16T11:55:50.094Z,14.40
2019-05-16T11:58:09.625Z,14.46
2019-05-16T12:00:41.512Z,14.59
2019-05-16T12:03:13.365Z,14.72
2019-05-16T12:05:48.320Z,14.72
2019-05-16T12:08:18.656Z,14.73
2019-05-16T12:10:50.480Z,14.69
2019-05-16T12:13:32.350Z,14.40
2019-05-16T12:15:56.639Z,14.34
2019-05-16T12:18:28.533Z,14.23
2019-05-16T12:21:00.336Z,14.38
2019-05-16T12:23:32.199Z,14.35
2019-05-16T12:26:03.986Z,14.47
2019-05-16T12:28:36.147Z,14.58
2019-05-16T12:31:08.160Z,14.67
2019-05-16T12:33:44.160Z,14.72
2019-05-16T12:36:18.732Z,14.70
2019-05-16T12:38:50.562Z,14.68
2019-05-16T12:41:22.430Z,14.70
2019-05-16T12:43:57.316Z,14.67
2019-05-16T12:46:28.071Z,14.54
2019-05-16T12:48:59.977Z,14.45
2019-05-16T12:51:31.924Z,14.53
2019-05-16T12:54:03.798Z,14.59
2019-05-16T12:56:37.752Z,14.69
2019-05-16T12:59:09.245Z,14.70
2019-05-16T13:01:41.108Z,14.75
2019-05-16T13:04:12.984Z,14.73
2019-05-16T13:06:46.951Z,14.72
2019-05-16T13:09:18.775Z,14.89
2019-05-16T13:11:50.736Z,14.97
2019-05-16T13:14:22.519Z,15.07
2019-05-16T13:16:54.380Z,14.85
2019-05-16T13:19:33.435Z,14.97
2019-05-16T13:21:59.814Z,14.88
2019-05-16T13:24:31.812Z,14.92
2019-05-16T13:27:03.616Z,15.10
2019-05-16T13:29:37.038Z,15.32
2019-05-16T13:32:09.199Z,15.41
2019-05-16T13:34:41.124Z,15.43
2019-05-16T13:37:12.996Z,15.39
2019-05-16T13:39:47.630Z,15.30
2019-05-16T13:42:19.364Z,15.11
2019-05-16T13:44:51.160Z,15.04
2019-05-16T13:47:23.081Z,15.01
2019-05-16T13:49:54.974Z,15.06
2019-05-16T13:52:28.293Z,15.12
2019-05-16T13:55:00.285Z,15.15
2019-05-16T13:57:32.148Z,15.22
2019-05-16T14:00:04.153Z,15.05
2019-05-16T14:02:38.013Z,15.14
2019-05-16T14:05:10.259Z,15.00
2019-05-16T14:07:42.122Z,14.85
2019-05-16T14:10:18.384Z,14.77
2019-05-16T14:12:50.446Z,14.81
2019-05-16T14:15:22.590Z,14.88
2019-05-16T14:17:56.739Z,15.01
2019-05-16T14:20:28.045Z,15.08
2019-05-16T14:23:01.718Z,15.24
2019-05-16T14:25:33.480Z,15.25
2019-05-16T14:28:07.685Z,15.32
2019-05-16T14:30:39.150Z,15.41
2019-05-16T14:33:13.952Z,15.52
2019-05-16T14:35:47.021Z,15.64
2019-05-16T14:38:18.206Z,15.62
2019-05-16T14:40:50.468Z,15.53
2019-05-16T14:43:22.355Z,15.55
2019-05-16T14:45:57.145Z,15.50
2019-05-16T14:48:28.627Z,15.46
2019-05-16T14:51:00.430Z,15.37
2019-05-16T14:53:32.301Z,15.33
2019-05-16T14:56:07.092Z,15.39
2019-05-16T14:58:38.736Z,15.38
2019-05-16T15:01:10.597Z,15.40
2019-05-16T15:03:42.487Z,15.48
2019-05-16T15:06:17.971Z,15.53
2019-05-16T15:08:47.982Z,15.44
2019-05-16T15:11:19.765Z,15.46
2019-05-16T15:13:51.556Z,15.40
2019-05-16T15:16:23.365Z,15.40
2019-05-16T15:18:57.495Z,15.43
2019-05-16T15:21:28.751Z,15.35
2019-05-16T15:24:00.615Z,15.18
2019-05-16T15:26:32.478Z,15.18
2019-05-16T15:29:08.183Z,15.14
2019-05-16T15:31:39.521Z,15.19
2019-05-16T15:34:11.706Z,15.25
2019-05-16T15:36:43.590Z,15.28
2019-05-16T15:39:16.983Z,15.32
2019-05-16T15:41:49.401Z,15.30
2019-05-16T15:44:21.272Z,15.24
2019-05-16T15:46:53.160Z,15.28
2019-05-16T15:49:26.508Z,15.22
2019-05-16T15:51:58.443Z,15.24
2019-05-16T15:54:30.945Z,15.20
2019-05-16T15:57:02.841Z,15.15
2019-05-16T15:59:37.381Z,15.09
2019-05-16T16:02:08.547Z,15.16
2019-05-16T16:04:40.422Z,15.14
2019-05-16T16:07:13.275Z,15.12
2019-05-16T16:09:47.028Z,15.00
2019-05-16T16:12:18.741Z,15.01
2019-05-16T16:14:50.605Z,14.93
2019-05-16T16:17:22.496Z,14.92
2019-05-16T16:19:57.933Z,14.86
2019-05-16T16:22:29.452Z,14.77
2019-05-16T16:25:01.825Z,14.72
2019-05-16T16:27:33.821Z,14.77
2019-05-16T16:30:06.976Z,14.80
2019-05-16T16:32:39.374Z,14.76
2019-05-16T16:35:13.986Z,14.76
2019-05-16T16:37:46.924Z,14.69
2019-05-16T16:40:18.725Z,14.70
2019-05-16T16:42:50.654Z,14.74
2019-05-16T16:45:22.587Z,14.71
2019-05-16T16:47:57.097Z,14.70
2019-05-16T16:50:28.469Z,14.71
2019-05-16T16:53:00.825Z,14.69
2019-05-16T16:55:32.709Z,14.63
2019-05-16T16:58:09.117Z,14.59
2019-05-16T17:00:38.690Z,14.55
2019-05-16T17:03:11.369Z,14.60
2019-05-16T17:05:43.340Z,14.65
2019-05-16T17:08:16.789Z,14.61
2019-05-16T17:10:49.847Z,14.69
2019-05-16T17:13:21.715Z,14.72
2019-05-16T17:15:56.833Z,14.69
2019-05-16T17:18:28.132Z,14.72
2019-05-16T17:20:59.951Z,14.60
2019-05-16T17:23:33.754Z,14.49
2019-05-16T17:26:07.530Z,14.47
2019-05-16T17:28:39.485Z,14.53
2019-05-16T17:31:11.382Z,14.56
2019-05-16T17:33:43.246Z,14.39
2019-05-16T17:36:17.226Z,14.35
2019-05-16T17:38:48.810Z,14.43
2019-05-16T17:41:20.664Z,14.41
2019-05-16T17:43:53.529Z,14.48
2019-05-16T17:46:34.791Z,14.48
2019-05-16T17:48:58.943Z,14.48
2019-05-16T17:51:30.815Z,14.55
2019-05-16T17:54:02.689Z,14.52
2019-05-16T17:56:36.871Z,14.52
2019-05-16T17:59:08.217Z,14.55
2019-05-16T18:01:40.083Z,14.57
2019-05-16T18:04:12.048Z,14.48
2019-05-16T18:06:43.915Z,14.50
2019-05-16T18:09:17.174Z,14.50
2019-05-16T18:11:49.114Z,14.45
2019-05-16T18:14:20.975Z,14.41
2019-05-16T18:16:58.751Z,14.39
2019-05-16T18:19:26.557Z,14.35
2019-05-16T18:21:58.484Z,14.31
2019-05-16T18:24:30.271Z,14.35
2019-05-16T18:27:02.068Z,14.31
2019-05-16T18:29:33.923Z,14.35
2019-05-16T18:32:07.040Z,14.30
2019-05-16T18:34:39.936Z,14.32
2019-05-16T18:37:11.831Z,14.32
2019-05-16T18:39:43.699Z,14.32
2019-05-16T18:42:16.758Z,14.36
2019-05-16T18:44:48.851Z,14.32
2019-05-16T18:47:20.704Z,14.31
2019-05-16T18:49:52.578Z,14.28
2019-05-16T18:52:24.438Z,14.22
2019-05-16T18:54:57.659Z,14.25
2019-05-16T18:57:29.544Z,14.25
2019-05-16T19:00:01.431Z,14.23
2019-05-16T19:02:33.486Z,14.28
2019-05-16T19:05:06.924Z,14.28
2019-05-16T19:07:39.196Z,14.30
2019-05-16T19:10:11.400Z,14.30
2019-05-16T19:12:43.277Z,14.30
2019-05-16T19:15:17.523Z,14.30
2019-05-16T19:17:49.023Z,14.28
2019-05-16T19:20:21.105Z,14.32
2019-05-16T19:22:52.992Z,14.34
2019-05-16T19:25:26.928Z,14.40
2019-05-16T19:27:58.640Z,14.42
2019-05-16T19:30:30.731Z,14.46
2019-05-16T19:33:02.612Z,14.46
2019-05-16T19:35:34.575Z,14.42
2019-05-16T19:38:07.934Z,14.42
2019-05-16T19:40:40.453Z,14.40
2019-05-16T19:43:12.599Z,14.35
2019-05-16T19:45:46.522Z,14.17
2019-05-16T19:48:18.192Z,14.04
2019-05-16T19:50:50.077Z,14.00
2019-05-16T19:53:21.946Z,13.89
2019-05-16T19:55:56.083Z,13.84
2019-05-16T19:58:27.358Z,13.85
2019-05-16T20:00:59.146Z,13.95
2019-05-16T20:03:30.999Z,14.00
2019-05-16T20:06:02.854Z,14.02
2019-05-16T20:08:37.224Z,14.00
2019-05-16T20:11:08.719Z,14.01
2019-05-16T20:13:40.806Z,14.05
2019-05-16T20:16:12.888Z,14.05
2019-05-16T20:18:46.619Z,14.06
2019-05-16T20:21:18.593Z,14.11
2019-05-16T20:23:50.709Z,14.06
2019-05-16T20:26:23.741Z,14.11
2019-05-16T20:28:59.201Z,14.15
2019-05-16T20:31:29.725Z,14.14
2019-05-16T20:34:01.603Z,14.16
2019-05-16T20:36:33.839Z,14.14
2019-05-16T20:39:08.581Z,14.12
2019-05-16T20:41:40.604Z,14.14
2019-05-16T20:44:12.837Z,14.16
2019-05-16T20:46:46.814Z,14.17
2019-05-16T20:49:18.199Z,14.16
2019-05-16T20:51:50.288Z,14.06
2019-05-16T20:54:29.837Z,14.05
2019-05-16T20:57:01.860Z,14.04
2019-05-16T20:59:33.718Z,14.02
2019-05-16T21:02:06.823Z,14.03
2019-05-16T21:04:39.078Z,14.00
2019-05-16T21:07:11.539Z,14.04
2019-05-16T21:09:43.609Z,13.96
2019-05-16T21:12:17.239Z,14.01
2019-05-16T21:14:50.270Z,14.03
2019-05-16T21:17:22.511Z,14.02
2019-05-16T21:19:54.335Z,14.05
2019-05-16T21:22:27.377Z,13.93
2019-05-16T21:24:59.297Z,13.75
2019-05-16T21:27:31.167Z,13.61
2019-05-16T21:30:03.050Z,13.53
2019-05-16T21:32:36.559Z,13.53
2019-05-16T21:35:08.830Z,13.55
2019-05-16T21:37:40.894Z,13.55
2019-05-16T21:40:12.898Z,13.60
2019-05-16T21:42:44.752Z,13.61
2019-05-16T21:45:16.723Z,13.68
2019-05-16T21:47:48.604Z,13.72
2019-05-16T21:50:20.471Z,13.67
2019-05-16T21:52:52.463Z,13.62
2019-05-16T21:55:24.421Z,13.55
2019-05-16T21:57:57.502Z,13.55
2019-05-16T22:00:37.517Z,13.52
2019-05-16T22:03:09.716Z,13.57
2019-05-16T22:05:41.790Z,13.65
2019-05-16T22:08:13.825Z,13.71
2019-05-16T22:10:46.840Z,13.68
2019-05-16T22:13:18.994Z,13.72
2019-05-16T22:15:50.994Z,13.75
2019-05-16T22:18:23.190Z,13.75
2019-05-16T22:20:57.115Z,13.69
2019-05-16T22:23:29.045Z,13.69
2019-05-16T22:26:00.900Z,13.73
2019-05-16T22:28:33.769Z,13.72
2019-05-16T22:31:07.448Z,13.74
2019-05-16T22:33:39.169Z,13.70
2019-05-16T22:36:11.668Z,13.65
2019-05-16T22:38:43.777Z,13.62
2019-05-16T22:41:17.249Z,13.72
2019-05-16T22:43:49.680Z,13.67
2019-05-16T22:46:21.539Z,13.67
2019-05-16T22:48:53.530Z,13.67
2019-05-16T22:51:27.173Z,13.51
2019-05-16T22:53:59.264Z,13.61
2019-05-16T22:56:31.221Z,13.56
2019-05-16T22:59:03.083Z,13.62
2019-05-16T23:01:37.651Z,13.64
2019-05-16T23:04:09.177Z,13.70
2019-05-16T23:06:41.190Z,13.69
2019-05-16T23:09:13.165Z,13.62
2019-05-16T23:11:45.098Z,13.57
2019-05-16T23:14:17.449Z,13.58
2019-05-16T23:16:49.379Z,13.62
2019-05-16T23:19:21.703Z,13.69
2019-05-16T23:21:56.710Z,13.72
2019-05-16T23:24:27.896Z,13.74
2019-05-16T23:26:59.730Z,13.71
2019-05-16T23:29:32.338Z,13.56
2019-05-16T23:32:07.157Z,13.53
2019-05-16T23:34:38.772Z,13.60
2019-05-16T23:37:10.699Z,13.58
2019-05-16T23:39:42.869Z,13.63
2019-05-16T23:42:14.750Z,13.65
2019-05-16T23:44:47.313Z,13.60
2019-05-16T23:47:19.380Z,13.58
2019-05-16T23:49:51.325Z,13.57
2019-05-16T23:52:23.288Z,13.56
2019-05-16T23:54:56.992Z,13.47
2019-05-16T23:57:28.640Z,13.47
